sensor_id;sensor_type;location;lat;lon;timestamp;temperature;humidity
61016;DHT22;46902;52.920;6.536;2023-09-12T00:00:53;20.90;99.90
61016;DHT22;46902;52.920;6.536;2023-09-12T00:03:20;20.90;99.90
61016;DHT22;46902;52.920;6.536;2023-09-12T00:05:56;20.90;99.90
61016;DHT22;46902;52.920;6.536;2023-09-12T00:08:22;20.90;99.90
61016;DHT22;46902;52.920;6.536;2023-09-12T00:11:08;20.90;99.90
61016;DHT22;46902;52.920;6.536;2023-09-12T00:13:38;20.90;99.90
61016;DHT22;46902;52.920;6.536;2023-09-12T00:16:05;20.90;99.90
61016;DHT22;46902;52.920;6.536;2023-09-12T00:18:31;20.80;99.90
61016;DHT22;46902;52.920;6.536;2023-09-12T00:20:57;20.80;99.90
61016;DHT22;46902;52.920;6.536;2023-09-12T00:23:24;20.80;99.90
61016;DHT22;46902;52.920;6.536;2023-09-12T00:25:50;20.80;99.90
61016;DHT22;46902;52.920;6.536;2023-09-12T00:28:17;20.80;99.90
61016;DHT22;46902;52.920;6.536;2023-09-12T00:30:43;20.70;99.90
61016;DHT22;46902;52.920;6.536;2023-09-12T00:33:09;20.70;99.90
61016;DHT22;46902;52.920;6.536;2023-09-12T00:35:35;20.70;99.90
61016;DHT22;46902;52.920;6.536;2023-09-12T00:38:01;20.80;99.90
61016;DHT22;46902;52.920;6.536;2023-09-12T00:40:26;20.70;99.90
61016;DHT22;46902;52.920;6.536;2023-09-12T00:42:52;20.70;99.90
61016;DHT22;46902;52.920;6.536;2023-09-12T00:45:18;20.70;99.90
61016;DHT22;46902;52.920;6.536;2023-09-12T00:47:44;20.70;99.90
61016;DHT22;46902;52.920;6.536;2023-09-12T00:50:10;20.70;99.90
61016;DHT22;46902;52.920;6.536;2023-09-12T00:52:36;20.70;99.90
61016;DHT22;46902;52.920;6.536;2023-09-12T00:55:04;20.70;99.90
61016;DHT22;46902;52.920;6.536;2023-09-12T00:57:32;20.70;99.90
61016;DHT22;46902;52.920;6.536;2023-09-12T00:59:58;20.70;99.90
61016;DHT22;46902;52.920;6.536;2023-09-12T01:02:24;20.60;99.90
61016;DHT22;46902;52.920;6.536;2023-09-12T01:04:50;20.60;99.90
61016;DHT22;46902;52.920;6.536;2023-09-12T01:07:16;20.60;99.90
61016;DHT22;46902;52.920;6.536;2023-09-12T01:09:41;20.50;99.90
61016;DHT22;46902;52.920;6.536;2023-09-12T01:12:08;20.50;99.90
61016;DHT22;46902;52.920;6.536;2023-09-12T01:14:33;20.40;99.90
61016;DHT22;46902;52.920;6.536;2023-09-12T01:17:00;20.40;99.90
61016;DHT22;46902;52.920;6.536;2023-09-12T01:19:27;20.50;99.90
61016;DHT22;46902;52.920;6.536;2023-09-12T01:27:28;20.30;99.90
61016;DHT22;46902;52.920;6.536;2023-09-12T01:30:03;20.30;99.90
61016;DHT22;46902;52.920;6.536;2023-09-12T01:32:30;20.20;99.90
61016;DHT22;46902;52.920;6.536;2023-09-12T01:34:56;20.20;99.90
61016;DHT22;46902;52.920;6.536;2023-09-12T01:37:22;20.10;99.90
61016;DHT22;46902;52.920;6.536;2023-09-12T01:39:47;20.20;99.90
61016;DHT22;46902;52.920;6.536;2023-09-12T01:42:17;20.10;99.90
61016;DHT22;46902;52.920;6.536;2023-09-12T01:44:44;20.10;99.90
61016;DHT22;46902;52.920;6.536;2023-09-12T01:47:10;20.10;99.90
61016;DHT22;46902;52.920;6.536;2023-09-12T01:49:39;20.00;99.90
61016;DHT22;46902;52.920;6.536;2023-09-12T01:52:05;19.90;99.90
61016;DHT22;46902;52.920;6.536;2023-09-12T01:54:32;19.90;99.90
61016;DHT22;46902;52.920;6.536;2023-09-12T01:56:59;19.90;99.90
61016;DHT22;46902;52.920;6.536;2023-09-12T01:59:26;19.90;99.90
61016;DHT22;46902;52.920;6.536;2023-09-12T02:01:51;19.90;99.90
61016;DHT22;46902;52.920;6.536;2023-09-12T02:04:17;19.90;99.90
61016;DHT22;46902;52.920;6.536;2023-09-12T02:06:43;19.90;99.90
61016;DHT22;46902;52.920;6.536;2023-09-12T02:09:08;19.90;99.90
61016;DHT22;46902;52.920;6.536;2023-09-12T02:11:34;19.90;99.90
61016;DHT22;46902;52.920;6.536;2023-09-12T02:13:59;19.90;99.90
61016;DHT22;46902;52.920;6.536;2023-09-12T02:16:25;19.90;99.90
61016;DHT22;46902;52.920;6.536;2023-09-12T02:18:51;19.80;99.90
61016;DHT22;46902;52.920;6.536;2023-09-12T02:21:16;19.90;99.90
61016;DHT22;46902;52.920;6.536;2023-09-12T02:23:42;19.80;99.90
61016;DHT22;46902;52.920;6.536;2023-09-12T02:26:08;19.80;99.90
61016;DHT22;46902;52.920;6.536;2023-09-12T02:28:33;19.90;99.90
61016;DHT22;46902;52.920;6.536;2023-09-12T02:30:59;19.80;99.90
61016;DHT22;46902;52.920;6.536;2023-09-12T02:33:24;19.70;99.90
61016;DHT22;46902;52.920;6.536;2023-09-12T02:35:50;19.60;99.90
61016;DHT22;46902;52.920;6.536;2023-09-12T02:38:17;19.60;99.90
61016;DHT22;46902;52.920;6.536;2023-09-12T02:40:42;19.50;99.90
61016;DHT22;46902;52.920;6.536;2023-09-12T02:43:08;19.50;99.90
61016;DHT22;46902;52.920;6.536;2023-09-12T02:45:34;19.50;99.90
61016;DHT22;46902;52.920;6.536;2023-09-12T02:47:59;19.40;99.90
61016;DHT22;46902;52.920;6.536;2023-09-12T02:50:25;19.40;99.90
61016;DHT22;46902;52.920;6.536;2023-09-12T02:52:50;19.40;99.90
61016;DHT22;46902;52.920;6.536;2023-09-12T02:55:16;19.40;99.90
61016;DHT22;46902;52.920;6.536;2023-09-12T02:57:42;19.40;99.90
61016;DHT22;46902;52.920;6.536;2023-09-12T03:00:08;19.30;99.90
61016;DHT22;46902;52.920;6.536;2023-09-12T03:02:34;19.30;99.90
61016;DHT22;46902;52.920;6.536;2023-09-12T03:05:00;19.40;99.90
61016;DHT22;46902;52.920;6.536;2023-09-12T03:07:27;19.30;99.90
61016;DHT22;46902;52.920;6.536;2023-09-12T03:09:52;19.40;99.90
61016;DHT22;46902;52.920;6.536;2023-09-12T03:12:18;19.30;99.90
61016;DHT22;46902;52.920;6.536;2023-09-12T03:14:43;19.40;99.90
61016;DHT22;46902;52.920;6.536;2023-09-12T03:17:09;19.40;99.90
61016;DHT22;46902;52.920;6.536;2023-09-12T03:19:35;19.40;99.90
61016;DHT22;46902;52.920;6.536;2023-09-12T03:22:00;19.40;99.90
61016;DHT22;46902;52.920;6.536;2023-09-12T03:24:26;19.40;99.90
61016;DHT22;46902;52.920;6.536;2023-09-12T03:26:54;19.40;99.90
61016;DHT22;46902;52.920;6.536;2023-09-12T03:29:19;19.40;99.90
61016;DHT22;46902;52.920;6.536;2023-09-12T03:31:45;19.40;99.90
61016;DHT22;46902;52.920;6.536;2023-09-12T03:34:10;19.30;99.90
61016;DHT22;46902;52.920;6.536;2023-09-12T03:36:36;19.30;99.90
61016;DHT22;46902;52.920;6.536;2023-09-12T03:39:02;19.30;99.90
61016;DHT22;46902;52.920;6.536;2023-09-12T03:41:30;19.30;99.90
61016;DHT22;46902;52.920;6.536;2023-09-12T03:43:56;19.30;99.90
61016;DHT22;46902;52.920;6.536;2023-09-12T03:46:22;19.30;99.90
61016;DHT22;46902;52.920;6.536;2023-09-12T03:48:47;19.30;99.90
61016;DHT22;46902;52.920;6.536;2023-09-12T03:51:14;19.20;99.90
61016;DHT22;46902;52.920;6.536;2023-09-12T03:53:39;19.30;99.90
61016;DHT22;46902;52.920;6.536;2023-09-12T03:56:05;19.20;99.90
61016;DHT22;46902;52.920;6.536;2023-09-12T03:58:31;19.20;99.90
61016;DHT22;46902;52.920;6.536;2023-09-12T04:00:57;19.20;99.90
61016;DHT22;46902;52.920;6.536;2023-09-12T04:03:22;19.20;99.90
61016;DHT22;46902;52.920;6.536;2023-09-12T04:05:50;19.30;99.90
61016;DHT22;46902;52.920;6.536;2023-09-12T04:08:16;19.20;99.90
61016;DHT22;46902;52.920;6.536;2023-09-12T04:10:42;19.20;99.90
61016;DHT22;46902;52.920;6.536;2023-09-12T04:13:08;19.20;99.90
61016;DHT22;46902;52.920;6.536;2023-09-12T04:15:34;19.20;99.90
61016;DHT22;46902;52.920;6.536;2023-09-12T04:17:59;19.20;99.90
61016;DHT22;46902;52.920;6.536;2023-09-12T04:20:25;19.20;99.90
61016;DHT22;46902;52.920;6.536;2023-09-12T04:22:50;19.10;99.90
61016;DHT22;46902;52.920;6.536;2023-09-12T04:25:16;19.00;99.90
61016;DHT22;46902;52.920;6.536;2023-09-12T04:27:45;19.00;99.90
61016;DHT22;46902;52.920;6.536;2023-09-12T04:30:11;19.00;99.90
61016;DHT22;46902;52.920;6.536;2023-09-12T04:32:37;19.00;99.90
61016;DHT22;46902;52.920;6.536;2023-09-12T04:35:03;19.00;99.90
61016;DHT22;46902;52.920;6.536;2023-09-12T04:37:28;18.90;99.90
61016;DHT22;46902;52.920;6.536;2023-09-12T04:39:54;18.90;99.90
61016;DHT22;46902;52.920;6.536;2023-09-12T04:42:20;18.90;99.90
61016;DHT22;46902;52.920;6.536;2023-09-12T04:44:46;18.80;99.90
61016;DHT22;46902;52.920;6.536;2023-09-12T04:47:12;18.90;99.90
61016;DHT22;46902;52.920;6.536;2023-09-12T04:49:38;18.90;99.90
61016;DHT22;46902;52.920;6.536;2023-09-12T04:52:04;18.90;99.90
61016;DHT22;46902;52.920;6.536;2023-09-12T04:54:30;18.90;99.90
61016;DHT22;46902;52.920;6.536;2023-09-12T04:56:55;18.90;99.90
61016;DHT22;46902;52.920;6.536;2023-09-12T04:59:21;18.90;99.90
61016;DHT22;46902;52.920;6.536;2023-09-12T05:01:47;18.80;99.90
61016;DHT22;46902;52.920;6.536;2023-09-12T05:04:12;18.90;99.90
61016;DHT22;46902;52.920;6.536;2023-09-12T05:06:38;18.90;99.90
61016;DHT22;46902;52.920;6.536;2023-09-12T05:09:05;18.80;99.90
61016;DHT22;46902;52.920;6.536;2023-09-12T05:11:31;18.90;99.90
61016;DHT22;46902;52.920;6.536;2023-09-12T05:13:57;18.80;99.90
61016;DHT22;46902;52.920;6.536;2023-09-12T05:16:22;18.80;99.90
61016;DHT22;46902;52.920;6.536;2023-09-12T05:18:48;18.80;99.90
61016;DHT22;46902;52.920;6.536;2023-09-12T05:21:15;18.90;99.90
61016;DHT22;46902;52.920;6.536;2023-09-12T05:23:41;18.80;99.90
61016;DHT22;46902;52.920;6.536;2023-09-12T05:26:06;18.90;99.90
61016;DHT22;46902;52.920;6.536;2023-09-12T05:28:34;18.90;99.90
61016;DHT22;46902;52.920;6.536;2023-09-12T05:30:59;18.80;99.90
61016;DHT22;46902;52.920;6.536;2023-09-12T05:33:25;18.90;99.90
61016;DHT22;46902;52.920;6.536;2023-09-12T05:35:50;18.90;99.90
61016;DHT22;46902;52.920;6.536;2023-09-12T05:38:16;18.80;99.90
61016;DHT22;46902;52.920;6.536;2023-09-12T05:40:42;18.90;99.90
61016;DHT22;46902;52.920;6.536;2023-09-12T05:43:07;18.90;99.90
61016;DHT22;46902;52.920;6.536;2023-09-12T05:45:33;18.90;99.90
61016;DHT22;46902;52.920;6.536;2023-09-12T05:48:01;18.80;99.90
61016;DHT22;46902;52.920;6.536;2023-09-12T05:50:28;18.90;99.90
61016;DHT22;46902;52.920;6.536;2023-09-12T05:52:54;18.80;99.90
61016;DHT22;46902;52.920;6.536;2023-09-12T05:55:19;18.90;99.90
61016;DHT22;46902;52.920;6.536;2023-09-12T05:57:45;18.90;99.90
61016;DHT22;46902;52.920;6.536;2023-09-12T06:00:13;18.90;99.90
61016;DHT22;46902;52.920;6.536;2023-09-12T06:02:40;19.00;99.90
61016;DHT22;46902;52.920;6.536;2023-09-12T06:05:07;19.00;99.90
61016;DHT22;46902;52.920;6.536;2023-09-12T06:07:34;18.90;99.90
61016;DHT22;46902;52.920;6.536;2023-09-12T06:09:59;19.00;99.90
61016;DHT22;46902;52.920;6.536;2023-09-12T06:12:25;19.00;99.90
61016;DHT22;46902;52.920;6.536;2023-09-12T06:14:51;19.00;99.90
61016;DHT22;46902;52.920;6.536;2023-09-12T06:17:18;19.00;99.90
61016;DHT22;46902;52.920;6.536;2023-09-12T06:19:44;19.10;99.90
61016;DHT22;46902;52.920;6.536;2023-09-12T06:22:09;19.00;99.90
61016;DHT22;46902;52.920;6.536;2023-09-12T06:24:35;19.00;99.90
61016;DHT22;46902;52.920;6.536;2023-09-12T06:27:00;19.00;99.90
61016;DHT22;46902;52.920;6.536;2023-09-12T06:29:26;19.00;99.90
61016;DHT22;46902;52.920;6.536;2023-09-12T06:31:52;19.10;99.90
61016;DHT22;46902;52.920;6.536;2023-09-12T06:34:17;19.10;99.90
61016;DHT22;46902;52.920;6.536;2023-09-12T06:36:43;19.10;99.90
61016;DHT22;46902;52.920;6.536;2023-09-12T06:39:10;19.20;99.90
61016;DHT22;46902;52.920;6.536;2023-09-12T06:41:36;19.20;99.90
61016;DHT22;46902;52.920;6.536;2023-09-12T06:44:01;19.30;99.90
61016;DHT22;46902;52.920;6.536;2023-09-12T06:46:29;19.30;99.90
61016;DHT22;46902;52.920;6.536;2023-09-12T06:48:55;19.40;99.90
61016;DHT22;46902;52.920;6.536;2023-09-12T06:51:24;19.40;99.90
61016;DHT22;46902;52.920;6.536;2023-09-12T06:53:51;19.50;99.90
61016;DHT22;46902;52.920;6.536;2023-09-12T06:56:17;19.40;99.90
61016;DHT22;46902;52.920;6.536;2023-09-12T06:58:42;19.50;99.90
61016;DHT22;46902;52.920;6.536;2023-09-12T07:01:08;19.50;99.90
61016;DHT22;46902;52.920;6.536;2023-09-12T07:03:34;19.60;99.90
61016;DHT22;46902;52.920;6.536;2023-09-12T07:06:00;19.50;99.90
61016;DHT22;46902;52.920;6.536;2023-09-12T07:08:29;19.60;99.90
61016;DHT22;46902;52.920;6.536;2023-09-12T07:10:54;19.80;99.90
61016;DHT22;46902;52.920;6.536;2023-09-12T07:13:22;19.90;99.90
61016;DHT22;46902;52.920;6.536;2023-09-12T07:15:50;20.10;99.90
61016;DHT22;46902;52.920;6.536;2023-09-12T07:18:16;20.20;99.90
61016;DHT22;46902;52.920;6.536;2023-09-12T07:20:41;20.30;99.90
61016;DHT22;46902;52.920;6.536;2023-09-12T07:23:07;20.30;99.90
61016;DHT22;46902;52.920;6.536;2023-09-12T07:25:40;20.40;99.90
61016;DHT22;46902;52.920;6.536;2023-09-12T07:28:06;20.50;99.90
61016;DHT22;46902;52.920;6.536;2023-09-12T07:30:32;20.60;99.90
61016;DHT22;46902;52.920;6.536;2023-09-12T07:32:58;20.60;99.90
61016;DHT22;46902;52.920;6.536;2023-09-12T07:35:23;20.60;99.90
61016;DHT22;46902;52.920;6.536;2023-09-12T07:37:50;20.70;99.90
61016;DHT22;46902;52.920;6.536;2023-09-12T07:40:15;20.70;99.90
61016;DHT22;46902;52.920;6.536;2023-09-12T07:42:41;20.60;99.90
61016;DHT22;46902;52.920;6.536;2023-09-12T07:45:07;20.70;99.90
61016;DHT22;46902;52.920;6.536;2023-09-12T07:47:33;20.70;99.90
61016;DHT22;46902;52.920;6.536;2023-09-12T07:49:59;20.70;99.90
61016;DHT22;46902;52.920;6.536;2023-09-12T07:52:26;20.80;99.90
61016;DHT22;46902;52.920;6.536;2023-09-12T07:54:52;20.80;99.90
61016;DHT22;46902;52.920;6.536;2023-09-12T07:57:23;20.90;99.90
61016;DHT22;46902;52.920;6.536;2023-09-12T07:59:48;20.80;99.90
61016;DHT22;46902;52.920;6.536;2023-09-12T08:02:14;20.80;99.90
61016;DHT22;46902;52.920;6.536;2023-09-12T08:04:40;20.80;99.90
61016;DHT22;46902;52.920;6.536;2023-09-12T08:07:05;20.70;99.90
61016;DHT22;46902;52.920;6.536;2023-09-12T08:09:51;20.70;99.90
61016;DHT22;46902;52.920;6.536;2023-09-12T08:12:18;20.70;99.90
61016;DHT22;46902;52.920;6.536;2023-09-12T08:14:44;20.70;99.90
61016;DHT22;46902;52.920;6.536;2023-09-12T08:17:11;20.70;99.90
61016;DHT22;46902;52.920;6.536;2023-09-12T08:19:36;20.80;99.90
61016;DHT22;46902;52.920;6.536;2023-09-12T08:22:02;20.80;99.90
61016;DHT22;46902;52.920;6.536;2023-09-12T08:24:28;20.70;99.90
61016;DHT22;46902;52.920;6.536;2023-09-12T08:26:53;20.80;99.90
61016;DHT22;46902;52.920;6.536;2023-09-12T08:29:20;20.90;99.90
61016;DHT22;46902;52.920;6.536;2023-09-12T08:31:45;20.80;99.90
61016;DHT22;46902;52.920;6.536;2023-09-12T08:34:12;20.80;99.90
61016;DHT22;46902;52.920;6.536;2023-09-12T08:36:39;20.70;99.90
61016;DHT22;46902;52.920;6.536;2023-09-12T08:39:04;20.80;99.90
61016;DHT22;46902;52.920;6.536;2023-09-12T08:41:33;20.80;99.90
61016;DHT22;46902;52.920;6.536;2023-09-12T08:43:59;20.80;99.90
61016;DHT22;46902;52.920;6.536;2023-09-12T08:46:26;20.70;99.90
61016;DHT22;46902;52.920;6.536;2023-09-12T08:48:52;20.80;99.90
61016;DHT22;46902;52.920;6.536;2023-09-12T08:51:22;20.80;99.90
61016;DHT22;46902;52.920;6.536;2023-09-12T08:53:49;20.80;99.90
61016;DHT22;46902;52.920;6.536;2023-09-12T08:56:15;20.90;99.90
61016;DHT22;46902;52.920;6.536;2023-09-12T08:58:41;20.90;99.90
61016;DHT22;46902;52.920;6.536;2023-09-12T09:01:10;21.20;99.90
61016;DHT22;46902;52.920;6.536;2023-09-12T09:03:37;21.40;99.90
61016;DHT22;46902;52.920;6.536;2023-09-12T09:06:05;21.60;99.90
61016;DHT22;46902;52.920;6.536;2023-09-12T09:08:31;21.80;99.90
61016;DHT22;46902;52.920;6.536;2023-09-12T09:11:00;21.90;99.90
61016;DHT22;46902;52.920;6.536;2023-09-12T09:13:32;21.90;99.90
61016;DHT22;46902;52.920;6.536;2023-09-12T09:16:16;22.00;99.90
61016;DHT22;46902;52.920;6.536;2023-09-12T09:18:55;22.00;99.90
61016;DHT22;46902;52.920;6.536;2023-09-12T09:21:22;22.00;99.90
61016;DHT22;46902;52.920;6.536;2023-09-12T09:23:53;22.00;99.90
61016;DHT22;46902;52.920;6.536;2023-09-12T09:26:19;22.10;99.90
61016;DHT22;46902;52.920;6.536;2023-09-12T09:28:45;22.10;99.90
61016;DHT22;46902;52.920;6.536;2023-09-12T09:31:14;22.10;99.90
61016;DHT22;46902;52.920;6.536;2023-09-12T09:33:40;22.10;99.90
61016;DHT22;46902;52.920;6.536;2023-09-12T09:36:07;22.10;99.90
61016;DHT22;46902;52.920;6.536;2023-09-12T09:38:36;22.10;99.90
61016;DHT22;46902;52.920;6.536;2023-09-12T09:41:06;22.20;99.90
61016;DHT22;46902;52.920;6.536;2023-09-12T09:43:32;22.20;99.90
61016;DHT22;46902;52.920;6.536;2023-09-12T09:45:58;22.30;99.90
61016;DHT22;46902;52.920;6.536;2023-09-12T09:48:25;22.20;99.90
61016;DHT22;46902;52.920;6.536;2023-09-12T09:51:00;22.30;99.90
61016;DHT22;46902;52.920;6.536;2023-09-12T09:53:27;22.30;99.90
61016;DHT22;46902;52.920;6.536;2023-09-12T09:55:52;22.40;99.90
61016;DHT22;46902;52.920;6.536;2023-09-12T09:58:32;22.50;99.90
61016;DHT22;46902;52.920;6.536;2023-09-12T10:00:58;22.60;99.90
61016;DHT22;46902;52.920;6.536;2023-09-12T10:03:24;22.70;99.90
61016;DHT22;46902;52.920;6.536;2023-09-12T10:05:51;22.80;99.90
61016;DHT22;46902;52.920;6.536;2023-09-12T10:08:19;23.00;99.90
61016;DHT22;46902;52.920;6.536;2023-09-12T10:10:46;23.10;99.90
61016;DHT22;46902;52.920;6.536;2023-09-12T10:13:13;23.20;99.90
61016;DHT22;46902;52.920;6.536;2023-09-12T10:15:42;23.30;99.90
61016;DHT22;46902;52.920;6.536;2023-09-12T10:18:10;23.50;99.90
61016;DHT22;46902;52.920;6.536;2023-09-12T10:20:47;23.70;99.90
61016;DHT22;46902;52.920;6.536;2023-09-12T10:23:23;23.90;99.90
61016;DHT22;46902;52.920;6.536;2023-09-12T10:25:51;23.90;99.90
61016;DHT22;46902;52.920;6.536;2023-09-12T10:28:17;23.90;99.90
61016;DHT22;46902;52.920;6.536;2023-09-12T10:30:44;23.90;99.90
61016;DHT22;46902;52.920;6.536;2023-09-12T10:33:11;23.80;99.90
61016;DHT22;46902;52.920;6.536;2023-09-12T10:35:38;23.80;99.90
61016;DHT22;46902;52.920;6.536;2023-09-12T10:38:05;23.80;99.90
61016;DHT22;46902;52.920;6.536;2023-09-12T10:40:36;23.90;99.90
61016;DHT22;46902;52.920;6.536;2023-09-12T10:43:02;24.00;99.90
61016;DHT22;46902;52.920;6.536;2023-09-12T10:45:31;24.00;99.90
61016;DHT22;46902;52.920;6.536;2023-09-12T10:47:58;24.00;99.90
61016;DHT22;46902;52.920;6.536;2023-09-12T10:50:24;23.90;99.90
61016;DHT22;46902;52.920;6.536;2023-09-12T10:52:49;24.00;99.90
61016;DHT22;46902;52.920;6.536;2023-09-12T10:55:16;24.00;99.90
61016;DHT22;46902;52.920;6.536;2023-09-12T10:58:05;24.00;99.90
61016;DHT22;46902;52.920;6.536;2023-09-12T11:00:31;24.10;99.90
61016;DHT22;46902;52.920;6.536;2023-09-12T11:02:59;24.10;99.90
61016;DHT22;46902;52.920;6.536;2023-09-12T11:07:59;24.50;99.90
61016;DHT22;46902;52.920;6.536;2023-09-12T11:10:25;24.70;99.90
61016;DHT22;46902;52.920;6.536;2023-09-12T11:12:53;24.90;99.90
61016;DHT22;46902;52.920;6.536;2023-09-12T11:15:21;25.00;99.90
61016;DHT22;46902;52.920;6.536;2023-09-12T11:17:49;25.40;99.90
61016;DHT22;46902;52.920;6.536;2023-09-12T11:20:16;25.40;99.90
61016;DHT22;46902;52.920;6.536;2023-09-12T11:22:46;25.50;99.90
61016;DHT22;46902;52.920;6.536;2023-09-12T11:25:18;25.50;99.90
61016;DHT22;46902;52.920;6.536;2023-09-12T11:30:21;26.00;99.90
61016;DHT22;46902;52.920;6.536;2023-09-12T11:32:49;26.40;99.90
61016;DHT22;46902;52.920;6.536;2023-09-12T11:35:16;26.70;99.90
61016;DHT22;46902;52.920;6.536;2023-09-12T11:37:49;26.80;99.90
61016;DHT22;46902;52.920;6.536;2023-09-12T11:40:16;26.80;99.90
61016;DHT22;46902;52.920;6.536;2023-09-12T11:42:43;26.80;99.90
61016;DHT22;46902;52.920;6.536;2023-09-12T11:45:10;27.00;99.90
61016;DHT22;46902;52.920;6.536;2023-09-12T11:47:42;27.30;99.10
61016;DHT22;46902;52.920;6.536;2023-09-12T11:50:27;27.60;98.60
61016;DHT22;46902;52.920;6.536;2023-09-12T11:53:07;27.90;98.00
61016;DHT22;46902;52.920;6.536;2023-09-12T11:55:42;27.90;97.80
61016;DHT22;46902;52.920;6.536;2023-09-12T11:58:10;28.00;96.30
61016;DHT22;46902;52.920;6.536;2023-09-12T12:00:36;27.80;95.60
61016;DHT22;46902;52.920;6.536;2023-09-12T12:03:03;27.50;95.40
61016;DHT22;46902;52.920;6.536;2023-09-12T12:05:29;27.20;96.00
61016;DHT22;46902;52.920;6.536;2023-09-12T12:07:55;26.90;96.30
61016;DHT22;46902;52.920;6.536;2023-09-12T12:10:23;26.80;96.00
61016;DHT22;46902;52.920;6.536;2023-09-12T12:12:53;26.80;95.20
61016;DHT22;46902;52.920;6.536;2023-09-12T12:15:18;26.70;96.00
61016;DHT22;46902;52.920;6.536;2023-09-12T12:17:44;26.50;96.30
61016;DHT22;46902;52.920;6.536;2023-09-12T12:20:10;26.30;95.70
61016;DHT22;46902;52.920;6.536;2023-09-12T12:22:37;26.10;96.30
61016;DHT22;46902;52.920;6.536;2023-09-12T12:25:11;26.00;95.90
61016;DHT22;46902;52.920;6.536;2023-09-12T12:27:37;25.80;97.30
61016;DHT22;46902;52.920;6.536;2023-09-12T12:30:09;25.70;98.40
61016;DHT22;46902;52.920;6.536;2023-09-12T12:32:42;25.50;99.20
61016;DHT22;46902;52.920;6.536;2023-09-12T12:35:09;25.40;99.90
61016;DHT22;46902;52.920;6.536;2023-09-12T12:37:36;25.30;99.90
61016;DHT22;46902;52.920;6.536;2023-09-12T12:40:03;25.10;99.90
61016;DHT22;46902;52.920;6.536;2023-09-12T12:42:38;24.90;99.90
61016;DHT22;46902;52.920;6.536;2023-09-12T12:47:37;24.50;99.90
61016;DHT22;46902;52.920;6.536;2023-09-12T12:50:08;24.30;99.90
61016;DHT22;46902;52.920;6.536;2023-09-12T12:52:34;24.20;99.90
61016;DHT22;46902;52.920;6.536;2023-09-12T12:55:07;24.10;99.90
61016;DHT22;46902;52.920;6.536;2023-09-12T12:57:39;23.90;99.90
61016;DHT22;46902;52.920;6.536;2023-09-12T13:00:13;23.80;99.90
61016;DHT22;46902;52.920;6.536;2023-09-12T13:02:39;23.70;99.90
61016;DHT22;46902;52.920;6.536;2023-09-12T13:05:07;23.60;99.90
61016;DHT22;46902;52.920;6.536;2023-09-12T13:07:44;23.60;99.90
61016;DHT22;46902;52.920;6.536;2023-09-12T13:10:09;23.60;99.90
61016;DHT22;46902;52.920;6.536;2023-09-12T13:12:35;23.60;99.90
61016;DHT22;46902;52.920;6.536;2023-09-12T13:15:01;23.60;99.90
61016;DHT22;46902;52.920;6.536;2023-09-12T13:17:27;23.60;99.90
61016;DHT22;46902;52.920;6.536;2023-09-12T13:19:52;23.60;99.90
61016;DHT22;46902;52.920;6.536;2023-09-12T13:22:18;23.60;99.90
61016;DHT22;46902;52.920;6.536;2023-09-12T13:24:44;23.70;99.90
61016;DHT22;46902;52.920;6.536;2023-09-12T13:27:09;24.00;99.90
61016;DHT22;46902;52.920;6.536;2023-09-12T13:29:35;24.50;99.90
61016;DHT22;46902;52.920;6.536;2023-09-12T13:32:00;24.90;99.90
61016;DHT22;46902;52.920;6.536;2023-09-12T13:34:26;25.20;99.90
61016;DHT22;46902;52.920;6.536;2023-09-12T13:36:51;25.50;99.90
61016;DHT22;46902;52.920;6.536;2023-09-12T13:39:17;25.90;99.90
61016;DHT22;46902;52.920;6.536;2023-09-12T13:41:43;26.10;99.90
61016;DHT22;46902;52.920;6.536;2023-09-12T13:44:10;26.30;99.90
61016;DHT22;46902;52.920;6.536;2023-09-12T13:46:36;26.40;99.90
61016;DHT22;46902;52.920;6.536;2023-09-12T13:49:02;26.40;99.90
61016;DHT22;46902;52.920;6.536;2023-09-12T13:51:29;26.50;99.90
61016;DHT22;46902;52.920;6.536;2023-09-12T13:53:55;26.70;99.90
61016;DHT22;46902;52.920;6.536;2023-09-12T13:56:20;26.90;99.90
61016;DHT22;46902;52.920;6.536;2023-09-12T13:58:46;27.00;99.90
61016;DHT22;46902;52.920;6.536;2023-09-12T14:01:11;27.10;99.90
61016;DHT22;46902;52.920;6.536;2023-09-12T14:03:37;27.20;99.30
61016;DHT22;46902;52.920;6.536;2023-09-12T14:06:03;27.20;99.90
61016;DHT22;46902;52.920;6.536;2023-09-12T14:08:29;27.30;99.90
61016;DHT22;46902;52.920;6.536;2023-09-12T14:10:54;27.20;99.70
61016;DHT22;46902;52.920;6.536;2023-09-12T14:13:20;27.10;98.60
61016;DHT22;46902;52.920;6.536;2023-09-12T14:15:46;27.00;97.60
61016;DHT22;46902;52.920;6.536;2023-09-12T14:18:12;27.00;97.90
61016;DHT22;46902;52.920;6.536;2023-09-12T14:20:37;27.00;98.30
61016;DHT22;46902;52.920;6.536;2023-09-12T14:23:03;27.00;97.20
61016;DHT22;46902;52.920;6.536;2023-09-12T14:25:29;27.00;97.70
61016;DHT22;46902;52.920;6.536;2023-09-12T14:27:54;26.90;97.60
61016;DHT22;46902;52.920;6.536;2023-09-12T14:30:20;26.80;97.70
61016;DHT22;46902;52.920;6.536;2023-09-12T14:32:48;26.70;97.80
61016;DHT22;46902;52.920;6.536;2023-09-12T14:35:13;26.60;97.90
61016;DHT22;46902;52.920;6.536;2023-09-12T14:37:39;26.40;97.50
61016;DHT22;46902;52.920;6.536;2023-09-12T14:40:05;26.20;98.40
61016;DHT22;46902;52.920;6.536;2023-09-12T14:42:31;26.00;99.40
61016;DHT22;46902;52.920;6.536;2023-09-12T14:44:57;26.00;99.60
61016;DHT22;46902;52.920;6.536;2023-09-12T14:47:23;26.00;99.90
61016;DHT22;46902;52.920;6.536;2023-09-12T14:49:49;26.00;99.60
61016;DHT22;46902;52.920;6.536;2023-09-12T14:52:15;26.00;99.80
61016;DHT22;46902;52.920;6.536;2023-09-12T14:54:40;26.10;99.50
61016;DHT22;46902;52.920;6.536;2023-09-12T14:57:06;26.20;99.60
61016;DHT22;46902;52.920;6.536;2023-09-12T14:59:32;26.20;99.10
61016;DHT22;46902;52.920;6.536;2023-09-12T15:01:57;26.30;98.30
61016;DHT22;46902;52.920;6.536;2023-09-12T15:04:23;26.30;97.80
61016;DHT22;46902;52.920;6.536;2023-09-12T15:06:49;26.30;97.40
61016;DHT22;46902;52.920;6.536;2023-09-12T15:09:15;26.30;98.20
61016;DHT22;46902;52.920;6.536;2023-09-12T15:11:41;26.30;98.50
61016;DHT22;46902;52.920;6.536;2023-09-12T15:14:06;26.40;98.50
61016;DHT22;46902;52.920;6.536;2023-09-12T15:16:32;26.40;98.50
61016;DHT22;46902;52.920;6.536;2023-09-12T15:19:00;26.40;98.00
61016;DHT22;46902;52.920;6.536;2023-09-12T15:21:26;26.40;98.20
61016;DHT22;46902;52.920;6.536;2023-09-12T15:23:52;26.40;98.40
61016;DHT22;46902;52.920;6.536;2023-09-12T15:26:18;26.40;98.90
61016;DHT22;46902;52.920;6.536;2023-09-12T15:28:43;26.30;99.10
61016;DHT22;46902;52.920;6.536;2023-09-12T15:31:09;26.30;98.60
61016;DHT22;46902;52.920;6.536;2023-09-12T15:33:35;26.20;98.40
61016;DHT22;46902;52.920;6.536;2023-09-12T15:36:00;26.00;97.90
61016;DHT22;46902;52.920;6.536;2023-09-12T15:38:27;25.90;97.90
61016;DHT22;46902;52.920;6.536;2023-09-12T15:40:53;25.70;97.60